Terminal Aerodrome Forecast
Issued by NWS

Home | Current Version | Previous Version | Text Only | Print | Product List | Glossary On
Versions: 1 2 3 4 5 6 7 8 9 10 11 12 13 14 15 16 17 18
000
FTUS46 KSGX 260435 AAA
TAFSNA
TAF AMD
KSNA 260435Z 2605/2624 VRB04KT P6SM OVC020
     FM262000 21007KT P6SM BKN022
     FM262200 21009KT P6SM SCT024=

USA.gov is the U.S. government's official web portal to all federal, state and local government web resources and services.